UAL1322 KIAD-KRDU
Flight info
| Callsign | UAL1322 |
|---|---|
| Flight time | 0h 48m |
| Altitude | 22000 |
| Route | JDUBB4 MELTN ALDAN4 |
| Aircraft | A20N/M-SDE2E3FGHIRWXY/LB1 |
Departure
| Time | 2026-05-07 04:12 |
|---|---|
| Airport | Washington Dulles International Airport (KIAD) |
Arrival
| Time | 2026-05-07 05:00 |
|---|---|
| Airport | Raleigh-Durham International Airport (KRDU) |
| Time | Latitude | Longitude | Altitude | Speed | Heading |
|---|---|---|---|---|---|
| 2026-05-07 02:51 | 38.94473 | -77.44846 | 305 ft | 0 kts | 356° |
| 2026-05-07 03:17 | 38.94455 | -77.44844 | 304 ft | 4 kts | 352° |
| 2026-05-07 03:18 | 38.94430 | -77.44835 | 303 ft | 4 kts | 326° |
| 2026-05-07 03:18 | 38.94415 | -77.44812 | 302 ft | 3 kts | 274° |
| 2026-05-07 03:18 | 38.94414 | -77.44803 | 304 ft | 0 kts | 272° |
| 2026-05-07 04:06 | 38.94414 | -77.44810 | 297 ft | 4 kts | 271° |
| 2026-05-07 04:06 | 38.94417 | -77.44887 | 304 ft | 21 kts | 272° |
| 2026-05-07 04:07 | 38.94411 | -77.45087 | 302 ft | 23 kts | 264° |
| 2026-05-07 04:07 | 38.94396 | -77.45292 | 302 ft | 24 kts | 252° |
| 2026-05-07 04:07 | 38.94418 | -77.45425 | 301 ft | 10 kts | 261° |
| 2026-05-07 04:07 | 38.94420 | -77.45513 | 302 ft | 10 kts | 274° |
| 2026-05-07 04:08 | 38.94412 | -77.45595 | 303 ft | 5 kts | 216° |
| 2026-05-07 04:08 | 38.94365 | -77.45608 | 303 ft | 10 kts | 185° |
| 2026-05-07 04:08 | 38.94278 | -77.45610 | 304 ft | 15 kts | 181° |
| 2026-05-07 04:08 | 38.94162 | -77.45612 | 304 ft | 18 kts | 180° |
| 2026-05-07 04:09 | 38.94015 | -77.45613 | 304 ft | 23 kts | 180° |
| 2026-05-07 04:09 | 38.93922 | -77.45608 | 304 ft | 0 kts | 166° |
| 2026-05-07 04:09 | 38.93866 | -77.45610 | 300 ft | 21 kts | 182° |
| 2026-05-07 04:09 | 38.93701 | -77.45629 | 295 ft | 21 kts | 196° |
| 2026-05-07 04:10 | 38.93600 | -77.45675 | 285 ft | 0 kts | 197° |
| 2026-05-07 04:10 | 38.93596 | -77.45677 | 285 ft | 3 kts | 197° |
| 2026-05-07 04:10 | 38.93547 | -77.45697 | 283 ft | 11 kts | 200° |
| 2026-05-07 04:10 | 38.93458 | -77.45739 | 282 ft | 15 kts | 204° |
| 2026-05-07 04:11 | 38.93442 | -77.45819 | 282 ft | 8 kts | 264° |
| 2026-05-07 04:11 | 38.93455 | -77.45904 | 282 ft | 11 kts | 290° |
| 2026-05-07 04:11 | 38.93494 | -77.46050 | 286 ft | 39 kts | 288° |
| 2026-05-07 04:11 | 38.93675 | -77.46648 | 299 ft | 101 kts | 295° |
| 2026-05-07 04:12 | 38.94004 | -77.47697 | 301 ft | 149 kts | 292° |
| 2026-05-07 04:12 | 38.94368 | -77.49012 | 689 ft | 155 kts | 291° |
| 2026-05-07 04:12 | 38.94745 | -77.50269 | 1290 ft | 151 kts | 293° |
| 2026-05-07 04:12 | 38.95089 | -77.51523 | 1962 ft | 148 kts | 295° |
| 2026-05-07 04:13 | 38.95478 | -77.52893 | 2374 ft | 181 kts | 294° |
| 2026-05-07 04:13 | 38.95951 | -77.54620 | 2779 ft | 226 kts | 293° |
| 2026-05-07 04:13 | 38.96516 | -77.56618 | 2989 ft | 244 kts | 292° |
| 2026-05-07 04:13 | 38.97092 | -77.58671 | 3015 ft | 243 kts | 292° |
| 2026-05-07 04:14 | 38.97600 | -77.60735 | 3045 ft | 245 kts | 280° |
| 2026-05-07 04:14 | 38.97398 | -77.62925 | 3147 ft | 255 kts | 251° |
| 2026-05-07 04:14 | 38.96296 | -77.64741 | 3739 ft | 264 kts | 219° |
| 2026-05-07 04:14 | 38.94618 | -77.65564 | 5154 ft | 256 kts | 189° |
| 2026-05-07 04:15 | 38.92882 | -77.65450 | 6411 ft | 257 kts | 178° |
| 2026-05-07 04:15 | 38.91089 | -77.65036 | 7267 ft | 266 kts | 175° |
| 2026-05-07 04:15 | 38.89243 | -77.64579 | 8188 ft | 271 kts | 176° |
| 2026-05-07 04:15 | 38.87379 | -77.64170 | 9201 ft | 272 kts | 179° |
| 2026-05-07 04:16 | 38.86135 | -77.63929 | 9848 ft | 274 kts | 180° |
| 2026-05-07 04:16 | 38.83558 | -77.63493 | 10657 ft | 294 kts | 181° |
| 2026-05-07 04:16 | 38.82141 | -77.63276 | 10879 ft | 311 kts | 181° |
| 2026-05-07 04:16 | 38.79954 | -77.62943 | 11300 ft | 328 kts | 180° |
| 2026-05-07 04:17 | 38.77663 | -77.62580 | 12091 ft | 334 kts | 180° |
| 2026-05-07 04:17 | 38.75339 | -77.62207 | 12924 ft | 338 kts | 180° |
| 2026-05-07 04:17 | 38.72979 | -77.61829 | 13743 ft | 344 kts | 180° |
| 2026-05-07 04:17 | 38.70587 | -77.61450 | 14476 ft | 348 kts | 180° |
| 2026-05-07 04:18 | 38.68179 | -77.61067 | 15242 ft | 350 kts | 181° |
| 2026-05-07 04:18 | 38.65744 | -77.60682 | 15965 ft | 355 kts | 182° |
| 2026-05-07 04:18 | 38.63273 | -77.60295 | 16675 ft | 360 kts | 182° |
| 2026-05-07 04:18 | 38.60804 | -77.59909 | 17387 ft | 363 kts | 183° |
| 2026-05-07 04:19 | 38.58279 | -77.59513 | 18108 ft | 368 kts | 183° |
| 2026-05-07 04:19 | 38.55729 | -77.59114 | 18692 ft | 373 kts | 183° |
| 2026-05-07 04:19 | 38.53125 | -77.58713 | 19199 ft | 379 kts | 183° |
| 2026-05-07 04:19 | 38.50491 | -77.58300 | 19699 ft | 382 kts | 183° |
| 2026-05-07 04:20 | 38.47843 | -77.57882 | 19868 ft | 383 kts | 183° |
| 2026-05-07 04:20 | 38.45168 | -77.57462 | 20174 ft | 388 kts | 183° |
| 2026-05-07 04:20 | 38.42485 | -77.57120 | 20827 ft | 382 kts | 190° |
| 2026-05-07 04:21 | 38.37571 | -77.58543 | 22023 ft | 356 kts | 216° |
| 2026-05-07 04:21 | 38.35502 | -77.60203 | 22697 ft | 349 kts | 223° |
| 2026-05-07 04:21 | 38.33489 | -77.61946 | 23374 ft | 351 kts | 223° |
| 2026-05-07 04:21 | 38.31459 | -77.63696 | 23893 ft | 354 kts | 223° |
| 2026-05-07 04:22 | 38.29409 | -77.65455 | 24417 ft | 356 kts | 223° |
| 2026-05-07 04:22 | 38.27352 | -77.67225 | 24925 ft | 357 kts | 223° |
| 2026-05-07 04:22 | 38.25287 | -77.69006 | 25423 ft | 359 kts | 223° |
| 2026-05-07 04:22 | 38.23209 | -77.70800 | 25742 ft | 363 kts | 223° |
| 2026-05-07 04:23 | 38.21132 | -77.72593 | 25871 ft | 365 kts | 223° |
| 2026-05-07 04:23 | 38.19021 | -77.74409 | 25891 ft | 365 kts | 223° |
| 2026-05-07 04:23 | 38.16914 | -77.76217 | 25903 ft | 365 kts | 223° |
| 2026-05-07 04:23 | 38.14801 | -77.78030 | 25900 ft | 365 kts | 223° |
| 2026-05-07 04:24 | 38.12698 | -77.79834 | 25899 ft | 365 kts | 223° |
| 2026-05-07 04:24 | 38.10615 | -77.81619 | 25894 ft | 364 kts | 223° |
| 2026-05-07 04:24 | 38.08510 | -77.83423 | 25903 ft | 364 kts | 223° |
| 2026-05-07 04:24 | 38.06404 | -77.85227 | 25901 ft | 365 kts | 223° |
| 2026-05-07 04:25 | 38.04316 | -77.87013 | 25908 ft | 365 kts | 223° |
| 2026-05-07 04:25 | 38.02211 | -77.88812 | 25881 ft | 365 kts | 223° |
| 2026-05-07 04:25 | 38.00096 | -77.90622 | 25907 ft | 367 kts | 222° |
| 2026-05-07 04:25 | 37.97968 | -77.92439 | 25906 ft | 367 kts | 222° |
| 2026-05-07 04:26 | 37.95846 | -77.94249 | 25895 ft | 366 kts | 222° |
| 2026-05-07 04:26 | 37.93757 | -77.96028 | 25896 ft | 366 kts | 222° |
| 2026-05-07 04:26 | 37.91640 | -77.97830 | 25887 ft | 366 kts | 223° |
| 2026-05-07 04:26 | 37.89526 | -77.99629 | 25887 ft | 366 kts | 223° |
| 2026-05-07 04:27 | 37.87404 | -78.01435 | 25886 ft | 366 kts | 223° |
| 2026-05-07 04:27 | 37.85313 | -78.03211 | 25893 ft | 366 kts | 223° |
| 2026-05-07 04:27 | 37.83198 | -78.05008 | 25891 ft | 366 kts | 223° |
| 2026-05-07 04:27 | 37.81083 | -78.06803 | 25893 ft | 366 kts | 223° |
| 2026-05-07 04:28 | 37.78970 | -78.08596 | 25897 ft | 366 kts | 223° |
| 2026-05-07 04:28 | 37.76850 | -78.10392 | 25883 ft | 366 kts | 223° |
| 2026-05-07 04:28 | 37.74754 | -78.12167 | 25883 ft | 366 kts | 223° |
| 2026-05-07 04:28 | 37.72614 | -78.13978 | 25884 ft | 366 kts | 223° |
| 2026-05-07 04:29 | 37.70520 | -78.15749 | 25883 ft | 366 kts | 223° |
| 2026-05-07 04:29 | 37.68403 | -78.17539 | 25888 ft | 366 kts | 223° |
| 2026-05-07 04:29 | 37.66283 | -78.19329 | 25883 ft | 366 kts | 222° |
| 2026-05-07 04:29 | 37.64162 | -78.21119 | 25888 ft | 366 kts | 222° |
| 2026-05-07 04:30 | 37.62043 | -78.22906 | 25892 ft | 366 kts | 222° |
| 2026-05-07 04:30 | 37.59927 | -78.24689 | 25852 ft | 366 kts | 222° |
| 2026-05-07 04:30 | 37.57793 | -78.26489 | 25900 ft | 370 kts | 222° |
| 2026-05-07 04:30 | 37.55675 | -78.28273 | 25904 ft | 369 kts | 222° |
| 2026-05-07 04:31 | 37.53531 | -78.30074 | 25910 ft | 369 kts | 222° |
| 2026-05-07 04:31 | 37.51387 | -78.31875 | 25914 ft | 370 kts | 222° |
| 2026-05-07 04:31 | 37.49242 | -78.33675 | 25917 ft | 370 kts | 222° |
| 2026-05-07 04:31 | 37.47099 | -78.35474 | 25920 ft | 369 kts | 222° |
| 2026-05-07 04:32 | 37.44982 | -78.37248 | 25923 ft | 369 kts | 222° |
| 2026-05-07 04:32 | 37.42843 | -78.39041 | 25924 ft | 369 kts | 222° |
| 2026-05-07 04:32 | 37.40702 | -78.40833 | 25926 ft | 369 kts | 222° |
| 2026-05-07 04:32 | 37.38557 | -78.42628 | 25925 ft | 370 kts | 222° |
| 2026-05-07 04:33 | 37.36423 | -78.44418 | 25922 ft | 377 kts | 222° |
| 2026-05-07 04:33 | 37.34231 | -78.46253 | 25924 ft | 377 kts | 222° |
| 2026-05-07 04:33 | 37.32038 | -78.48082 | 25925 ft | 376 kts | 222° |
| 2026-05-07 04:33 | 37.29852 | -78.49903 | 25925 ft | 376 kts | 222° |
| 2026-05-07 04:34 | 37.27666 | -78.51724 | 25924 ft | 376 kts | 222° |
| 2026-05-07 04:34 | 37.25505 | -78.53525 | 25908 ft | 377 kts | 222° |
| 2026-05-07 04:34 | 37.23318 | -78.55346 | 25914 ft | 377 kts | 222° |
| 2026-05-07 04:34 | 37.21132 | -78.57165 | 25914 ft | 377 kts | 222° |
| 2026-05-07 04:35 | 37.18946 | -78.58983 | 25914 ft | 377 kts | 222° |
| 2026-05-07 04:35 | 37.16784 | -78.60781 | 25914 ft | 377 kts | 222° |
| 2026-05-07 04:35 | 37.14587 | -78.62613 | 25920 ft | 384 kts | 221° |
| 2026-05-07 04:35 | 37.12341 | -78.64485 | 25925 ft | 385 kts | 221° |
| 2026-05-07 04:36 | 37.10105 | -78.66338 | 25923 ft | 384 kts | 221° |
| 2026-05-07 04:36 | 37.07873 | -78.68186 | 25935 ft | 384 kts | 221° |
| 2026-05-07 04:36 | 37.05674 | -78.70004 | 25925 ft | 380 kts | 221° |
| 2026-05-07 04:36 | 37.03474 | -78.71821 | 25891 ft | 377 kts | 221° |
| 2026-05-07 04:37 | 37.01279 | -78.73636 | 25441 ft | 378 kts | 221° |
| 2026-05-07 04:37 | 36.99067 | -78.75474 | 24472 ft | 386 kts | 221° |
| 2026-05-07 04:37 | 36.96828 | -78.77335 | 23152 ft | 394 kts | 221° |
| 2026-05-07 04:37 | 36.94525 | -78.79238 | 22124 ft | 394 kts | 220° |
| 2026-05-07 04:38 | 36.92246 | -78.81113 | 21410 ft | 390 kts | 220° |
| 2026-05-07 04:38 | 36.89998 | -78.82958 | 20824 ft | 380 kts | 220° |
| 2026-05-07 04:38 | 36.87826 | -78.84734 | 20245 ft | 366 kts | 220° |
| 2026-05-07 04:38 | 36.85731 | -78.86454 | 19627 ft | 363 kts | 221° |
| 2026-05-07 04:39 | 36.83643 | -78.88176 | 19112 ft | 358 kts | 221° |
| 2026-05-07 04:39 | 36.81557 | -78.89895 | 18530 ft | 356 kts | 221° |
| 2026-05-07 04:39 | 36.79490 | -78.91596 | 17918 ft | 353 kts | 221° |
| 2026-05-07 04:39 | 36.77446 | -78.93276 | 17376 ft | 348 kts | 220° |
| 2026-05-07 04:40 | 36.75444 | -78.94920 | 16830 ft | 343 kts | 220° |
| 2026-05-07 04:40 | 36.73460 | -78.96549 | 16332 ft | 338 kts | 220° |
| 2026-05-07 04:40 | 36.71535 | -78.98128 | 15827 ft | 333 kts | 220° |
| 2026-05-07 04:40 | 36.69592 | -78.99675 | 15337 ft | 332 kts | 214° |
| 2026-05-07 04:41 | 36.67389 | -79.00649 | 14849 ft | 341 kts | 198° |
| 2026-05-07 04:41 | 36.64988 | -79.00723 | 14369 ft | 352 kts | 180° |
| 2026-05-07 04:41 | 36.62572 | -79.00081 | 13856 ft | 354 kts | 174° |
| 2026-05-07 04:41 | 36.60176 | -78.99370 | 13338 ft | 351 kts | 174° |
| 2026-05-07 04:42 | 36.57838 | -78.98671 | 12843 ft | 347 kts | 174° |
| 2026-05-07 04:42 | 36.55495 | -78.97977 | 12372 ft | 343 kts | 174° |
| 2026-05-07 04:42 | 36.53174 | -78.97297 | 11886 ft | 340 kts | 174° |
| 2026-05-07 04:42 | 36.50878 | -78.96630 | 11411 ft | 336 kts | 174° |
| 2026-05-07 04:43 | 36.48608 | -78.95971 | 10940 ft | 333 kts | 174° |
| 2026-05-07 04:43 | 36.46387 | -78.95328 | 10577 ft | 326 kts | 174° |
| 2026-05-07 04:43 | 36.44218 | -78.94696 | 10450 ft | 312 kts | 174° |
| 2026-05-07 04:43 | 36.42151 | -78.94092 | 10336 ft | 298 kts | 174° |
| 2026-05-07 04:44 | 36.40187 | -78.93276 | 10038 ft | 302 kts | 160° |
| 2026-05-07 04:44 | 36.38473 | -78.91762 | 9843 ft | 303 kts | 142° |
| 2026-05-07 04:44 | 36.37020 | -78.89897 | 9582 ft | 306 kts | 141° |
| 2026-05-07 04:44 | 36.35531 | -78.87992 | 9212 ft | 307 kts | 141° |
| 2026-05-07 04:45 | 36.34049 | -78.86100 | 8843 ft | 305 kts | 141° |
| 2026-05-07 04:45 | 36.32580 | -78.84228 | 8610 ft | 297 kts | 141° |
| 2026-05-07 04:45 | 36.31170 | -78.82427 | 8501 ft | 285 kts | 141° |
| 2026-05-07 04:45 | 36.29818 | -78.80698 | 8371 ft | 269 kts | 142° |
| 2026-05-07 04:46 | 36.28538 | -78.79080 | 8160 ft | 260 kts | 143° |
| 2026-05-07 04:46 | 36.27278 | -78.77505 | 8033 ft | 252 kts | 143° |
| 2026-05-07 04:46 | 36.26039 | -78.75949 | 7943 ft | 255 kts | 143° |
| 2026-05-07 04:46 | 36.24824 | -78.74415 | 7819 ft | 251 kts | 142° |
| 2026-05-07 04:47 | 36.23600 | -78.72864 | 7494 ft | 252 kts | 142° |
| 2026-05-07 04:47 | 36.22369 | -78.71305 | 7000 ft | 255 kts | 142° |
| 2026-05-07 04:47 | 36.21130 | -78.69735 | 6563 ft | 255 kts | 142° |
| 2026-05-07 04:47 | 36.19902 | -78.68176 | 6239 ft | 248 kts | 142° |
| 2026-05-07 04:48 | 36.18672 | -78.66686 | 6031 ft | 251 kts | 149° |
| 2026-05-07 04:48 | 36.17328 | -78.65353 | 5865 ft | 245 kts | 149° |
| 2026-05-07 04:48 | 36.15993 | -78.64027 | 5496 ft | 246 kts | 149° |
| 2026-05-07 04:48 | 36.14653 | -78.62694 | 5071 ft | 246 kts | 149° |
| 2026-05-07 04:49 | 36.13322 | -78.61364 | 4684 ft | 243 kts | 149° |
| 2026-05-07 04:49 | 36.12019 | -78.60061 | 4349 ft | 238 kts | 150° |
| 2026-05-07 04:49 | 36.10649 | -78.59207 | 4064 ft | 211 kts | 180° |
| 2026-05-07 04:49 | 36.09253 | -78.59384 | 4029 ft | 200 kts | 211° |
| 2026-05-07 04:50 | 36.08261 | -78.60484 | 4816 ft | 187 kts | 243° |
| 2026-05-07 04:50 | 36.08005 | -78.61960 | 6075 ft | 173 kts | 274° |
| 2026-05-07 04:50 | 36.08459 | -78.63313 | 7046 ft | 180 kts | 303° |
| 2026-05-07 04:50 | 36.09479 | -78.64222 | 7469 ft | 184 kts | 329° |
| 2026-05-07 04:51 | 36.10875 | -78.64431 | 6887 ft | 241 kts | 2° |
| 2026-05-07 04:51 | 36.12657 | -78.63665 | 6559 ft | 313 kts | 24° |
| 2026-05-07 04:51 | 36.14238 | -78.61369 | 6316 ft | 377 kts | 62° |
| 2026-05-07 04:51 | 36.15295 | -78.58179 | 5940 ft | 427 kts | 73° |
| 2026-05-07 04:52 | 36.16018 | -78.54544 | 6566 ft | 425 kts | 77° |
| 2026-05-07 04:52 | 36.16478 | -78.51262 | 7280 ft | 361 kts | 91° |
| 2026-05-07 04:52 | 36.15761 | -78.48614 | 7502 ft | 306 kts | 130° |
| 2026-05-07 04:52 | 36.14324 | -78.46860 | 7184 ft | 279 kts | 157° |
| 2026-05-07 04:53 | 36.12584 | -78.46142 | 6837 ft | 252 kts | 186° |
| 2026-05-07 04:53 | 36.10956 | -78.46525 | 6489 ft | 230 kts | 214° |
| 2026-05-07 04:53 | 36.09826 | -78.47820 | 6120 ft | 220 kts | 242° |
| 2026-05-07 04:53 | 36.09173 | -78.49528 | 5746 ft | 219 kts | 250° |
| 2026-05-07 04:54 | 36.08415 | -78.51163 | 5385 ft | 235 kts | 235° |
| 2026-05-07 04:54 | 36.07333 | -78.52764 | 5016 ft | 244 kts | 232° |
| 2026-05-07 04:54 | 36.06213 | -78.54330 | 4642 ft | 242 kts | 231° |
| 2026-05-07 04:54 | 36.05099 | -78.55885 | 4268 ft | 241 kts | 231° |
| 2026-05-07 04:55 | 36.04006 | -78.57432 | 4051 ft | 233 kts | 231° |
| 2026-05-07 04:55 | 36.02974 | -78.58923 | 4041 ft | 223 kts | 231° |
| 2026-05-07 04:55 | 36.01990 | -78.60327 | 4038 ft | 208 kts | 231° |
| 2026-05-07 04:55 | 36.01049 | -78.61615 | 3972 ft | 197 kts | 229° |
| 2026-05-07 04:56 | 36.00098 | -78.62823 | 3743 ft | 195 kts | 227° |
| 2026-05-07 04:56 | 35.99159 | -78.63994 | 3494 ft | 195 kts | 227° |
| 2026-05-07 04:56 | 35.98199 | -78.65186 | 3230 ft | 194 kts | 227° |
| 2026-05-07 04:56 | 35.97253 | -78.66363 | 2978 ft | 193 kts | 226° |
| 2026-05-07 04:57 | 35.96309 | -78.67534 | 2724 ft | 191 kts | 226° |
| 2026-05-07 04:57 | 35.95373 | -78.68694 | 2489 ft | 187 kts | 226° |
| 2026-05-07 04:57 | 35.94506 | -78.69771 | 2255 ft | 170 kts | 226° |
| 2026-05-07 04:57 | 35.93714 | -78.70754 | 2025 ft | 154 kts | 226° |
| 2026-05-07 04:58 | 35.93000 | -78.71640 | 1832 ft | 138 kts | 225° |
| 2026-05-07 04:58 | 35.92357 | -78.72439 | 1668 ft | 124 kts | 225° |
| 2026-05-07 04:58 | 35.91731 | -78.73215 | 1499 ft | 132 kts | 224° |
| 2026-05-07 04:58 | 35.91098 | -78.73998 | 1327 ft | 131 kts | 224° |
| 2026-05-07 04:59 | 35.90431 | -78.74801 | 1146 ft | 134 kts | 222° |
| 2026-05-07 04:59 | 35.89727 | -78.75586 | 922 ft | 138 kts | 223° |
| 2026-05-07 04:59 | 35.89056 | -78.76441 | 789 ft | 135 kts | 224° |
| 2026-05-07 04:59 | 35.88427 | -78.77271 | 629 ft | 131 kts | 224° |
| 2026-05-07 05:00 | 35.87802 | -78.78097 | 425 ft | 130 kts | 221° |
| 2026-05-07 05:00 | 35.87320 | -78.78672 | 427 ft | 55 kts | 224° |
| 2026-05-07 05:00 | 35.87162 | -78.78882 | 427 ft | 11 kts | 250° |
| 2026-05-07 05:00 | 35.87192 | -78.78958 | 432 ft | 11 kts | 322° |
| 2026-05-07 05:01 | 35.87270 | -78.79005 | 428 ft | 14 kts | 326° |
| 2026-05-07 05:01 | 35.87278 | -78.79013 | 430 ft | 1 kts | 316° |
| 2026-05-07 05:01 | 35.87283 | -78.79019 | 431 ft | 0 kts | 315° |
| 2026-05-07 05:01 | 35.87442 | -78.78877 | 425 ft | 0 kts | 315° |
| 2026-05-07 05:02 | 35.87444 | -78.78880 | 426 ft | 1 kts | 315° |
| 2026-05-07 05:02 | 35.87446 | -78.78882 | 427 ft | 0 kts | 315° |
| 2026-05-07 05:03 | 35.87442 | -78.78876 | 421 ft | 0 kts | 315° |